Time;durP1;ratioP1;P1;durP2;ratioP2;P2;SDS_P1;SDS_P2;PMS_P1;PMS_P2;Temp;Humidity;BMP_temperature;BMP_pressure;BME280_temperature;BME280_humidity;BME280_pressure;Samples;Min_cycle;Max_cycle;Signal;HPM_P1;HPM_P2
2023/07/23 00:02:20;;;;;;;9.60;8.60;;;;;;;11.54;98.85;97877.95;106853;1275;24227;-76
2023/07/23 00:04:48;;;;;;;10.60;9.50;;;;;;;11.51;98.18;97881.98;106826;1275;24197;-76
2023/07/23 00:07:16;;;;;;;9.70;8.80;;;;;;;11.49;97.81;97884.19;106791;1275;22630;-77
2023/07/23 00:09:44;;;;;;;9.00;8.10;;;;;;;11.47;97.54;97879.97;106871;1275;22528;-76
2023/07/23 00:12:12;;;;;;;10.00;7.70;;;;;;;11.46;97.47;97880.28;106806;1275;22525;-77
2023/07/23 00:14:40;;;;;;;9.70;7.20;;;;;;;11.43;98.20;97882.04;106836;1275;22507;-76
2023/07/23 00:17:08;;;;;;;8.80;7.60;;;;;;;11.36;97.79;97878.33;106841;1275;24353;-77
2023/07/23 00:19:36;;;;;;;12.00;8.00;;;;;;;11.33;97.66;97880.84;106829;1275;26648;-77
2023/07/23 00:22:04;;;;;;;10.60;7.70;;;;;;;11.32;97.55;97879.27;106843;1275;24272;-77
2023/07/23 00:24:32;;;;;;;8.30;7.40;;;;;;;11.30;98.14;97878.14;106867;1275;22639;-77
2023/07/23 00:27:00;;;;;;;10.20;7.90;;;;;;;11.13;98.00;97863.30;106732;1275;163887;-76
2023/07/23 00:29:28;;;;;;;8.60;7.70;;;;;;;11.18;97.76;97881.34;106934;1275;22522;-76
2023/07/23 00:31:56;;;;;;;8.20;7.30;;;;;;;11.16;97.93;97880.68;106844;1275;22527;-77
2023/07/23 00:34:24;;;;;;;9.30;7.30;;;;;;;11.12;98.76;97881.19;106889;1275;22991;-76
2023/07/23 00:36:52;;;;;;;8.80;7.50;;;;;;;11.09;99.35;97880.65;106722;1275;25387;-79
2023/07/23 00:39:20;;;;;;;9.80;8.20;;;;;;;11.06;99.53;97879.15;106828;1275;25268;-77
2023/07/23 00:41:49;;;;;;;9.50;8.30;;;;;;;11.01;99.67;97876.13;106839;1275;24064;-78
2023/07/23 00:44:17;;;;;;;8.00;7.20;;;;;;;10.98;99.24;97875.43;106843;1275;22717;-77
2023/07/23 00:46:45;;;;;;;11.50;8.50;;;;;;;10.97;99.42;97866.95;106816;1275;24300;-77
2023/07/23 00:49:13;;;;;;;9.70;8.30;;;;;;;10.93;99.65;97865.25;106788;1275;22515;-76
2023/07/23 00:51:41;;;;;;;12.10;7.60;;;;;;;10.90;99.93;97861.73;106814;1275;22544;-76
2023/07/23 00:54:11;;;;;;;11.20;9.10;;;;;;;10.87;100.00;97862.40;106850;1275;24247;-76
2023/07/23 00:56:43;;;;;;;9.80;8.80;;;;;;;10.82;100.00;97861.30;106846;1275;22543;-76
2023/07/23 00:59:11;;;;;;;10.40;8.90;;;;;;;10.81;100.00;97859.45;106841;1275;23712;-76
2023/07/23 01:01:39;;;;;;;12.40;8.00;;;;;;;10.80;100.00;97860.77;106858;1275;22529;-77
2023/07/23 01:04:07;;;;;;;12.00;7.40;;;;;;;10.81;100.00;97855.94;106839;1275;22647;-76
2023/07/23 01:06:37;;;;;;;8.80;7.90;;;;;;;10.80;100.00;97854.61;106710;1275;23290;-76
2023/07/23 01:09:06;;;;;;;8.90;8.00;;;;;;;10.79;100.00;97857.33;106892;1275;25490;-77
2023/07/23 01:11:35;;;;;;;11.20;8.50;;;;;;;10.78;100.00;97856.54;106820;1275;22514;-76
2023/07/23 01:14:03;;;;;;;11.70;9.10;;;;;;;10.81;100.00;97853.90;106818;1275;24232;-76
2023/07/23 01:16:32;;;;;;;11.30;8.80;;;;;;;10.81;100.00;97853.08;106775;1275;23156;-76
2023/07/23 01:19:01;;;;;;;10.00;9.00;;;;;;;10.83;100.00;97856.72;106913;1264;22546;-76
2023/07/23 01:21:30;;;;;;;10.00;8.40;;;;;;;10.86;100.00;97853.89;106972;1275;25382;-76
2023/07/23 01:23:58;;;;;;;13.10;9.50;;;;;;;10.88;100.00;97852.55;106859;1275;22635;-76
2023/07/23 01:26:25;;;;;;;11.30;8.80;;;;;;;10.90;100.00;97849.55;106849;1275;25395;-76
2023/07/23 01:28:53;;;;;;;10.20;9.10;;;;;;;10.95;100.00;97850.27;106872;1275;22536;-77
2023/07/23 01:31:21;;;;;;;11.30;9.60;;;;;;;10.93;100.00;97848.95;106754;1275;24766;-76
2023/07/23 01:33:51;;;;;;;12.20;10.00;;;;;;;10.92;100.00;97850.50;106849;1275;22533;-76
2023/07/23 01:36:19;;;;;;;9.70;8.50;;;;;;;10.91;100.00;97847.05;106867;1275;22526;-77
2023/07/23 01:38:48;;;;;;;9.90;8.70;;;;;;;10.95;100.00;97848.13;106831;1275;22537;-76
2023/07/23 01:41:16;;;;;;;9.80;8.20;;;;;;;10.94;100.00;97845.21;106850;1275;22528;-76
2023/07/23 01:43:44;;;;;;;10.30;8.40;;;;;;;10.92;100.00;97843.20;106793;1275;22786;-76
2023/07/23 01:46:12;;;;;;;13.00;9.20;;;;;;;10.88;100.00;97845.60;106847;1275;22673;-76
2023/07/23 01:48:40;;;;;;;11.20;9.20;;;;;;;10.85;100.00;97840.50;106855;1275;26984;-76
2023/07/23 01:51:10;;;;;;;9.80;8.70;;;;;;;10.84;100.00;97840.30;106735;1275;22486;-76
2023/07/23 01:53:38;;;;;;;10.70;9.30;;;;;;;10.83;100.00;97839.14;106830;1275;22524;-76
2023/07/23 01:56:06;;;;;;;10.20;9.20;;;;;;;10.84;100.00;97843.91;106748;1275;22629;-76
2023/07/23 01:58:34;;;;;;;10.50;9.10;;;;;;;10.86;100.00;97843.40;106747;1275;23310;-78
2023/07/23 02:01:04;;;;;;;10.70;8.80;;;;;;;10.89;100.00;97846.89;106724;1275;22766;-76
2023/07/23 02:03:32;;;;;;;12.40;9.00;;;;;;;10.91;100.00;97845.65;106861;1275;25277;-76
2023/07/23 02:06:01;;;;;;;11.60;9.10;;;;;;;10.92;100.00;97845.52;106743;1275;22661;-76
2023/07/23 02:08:30;;;;;;;11.70;9.10;;;;;;;10.89;100.00;97844.73;106896;1275;24301;-76
2023/07/23 02:11:02;;;;;;;8.80;7.90;;;;;;;10.78;100.00;97844.67;106818;1272;23370;-76
2023/07/23 02:13:31;;;;;;;10.60;8.70;;;;;;;10.70;100.00;97847.60;106902;1275;22651;-76
2023/07/23 02:15:59;;;;;;;8.70;7.90;;;;;;;10.71;100.00;97852.11;106847;1275;23949;-76
2023/07/23 02:18:28;;;;;;;10.40;9.30;;;;;;;10.70;100.00;97852.55;106859;1275;22529;-76
2023/07/23 02:20:56;;;;;;;8.90;8.00;;;;;;;10.69;100.00;97856.27;106728;1275;24404;-75
2023/07/23 02:23:24;;;;;;;9.20;8.30;;;;;;;10.70;100.00;97858.10;106837;1275;22554;-76
2023/07/23 02:25:52;;;;;;;10.70;8.70;;;;;;;10.73;100.00;97858.95;106851;1275;22678;-76
2023/07/23 02:28:20;;;;;;;9.70;8.40;;;;;;;10.73;100.00;97858.16;106728;1275;22590;-75
2023/07/23 02:30:58;;;;;;;9.60;8.70;;;;;;;10.60;100.00;97854.10;106850;1275;22524;-76
2023/07/23 02:33:26;;;;;;;9.40;8.50;;;;;;;10.53;100.00;97854.20;106824;1275;22541;-79
2023/07/23 02:35:54;;;;;;;10.30;8.00;;;;;;;10.50;100.00;97856.82;106884;1275;25321;-77
2023/07/23 02:38:22;;;;;;;12.20;9.50;;;;;;;10.50;100.00;97856.77;106736;1275;25342;-76
2023/07/23 02:40:58;;;;;;;10.10;8.50;;;;;;;10.51;100.00;97859.40;106850;1275;22532;-75
2023/07/23 02:43:26;;;;;;;10.60;9.00;;;;;;;10.55;100.00;97857.54;106838;1275;24236;-76
2023/07/23 02:45:54;;;;;;;11.40;9.40;;;;;;;10.59;100.00;97856.44;106892;1275;22536;-76
2023/07/23 02:48:22;;;;;;;11.80;8.80;;;;;;;10.58;100.00;97858.80;106735;1275;24381;-75
2023/07/23 02:50:52;;;;;;;12.80;9.40;;;;;;;10.60;100.00;97858.69;106744;1275;24378;-75
2023/07/23 02:53:20;;;;;;;11.40;9.30;;;;;;;10.64;100.00;97858.92;106813;1275;22657;-76
2023/07/23 02:55:48;;;;;;;9.80;8.70;;;;;;;10.67;100.00;97859.77;106732;1275;25381;-76
2023/07/23 02:58:16;;;;;;;9.30;8.40;;;;;;;10.69;100.00;97858.81;106814;1275;22822;-76
2023/07/23 03:00:45;;;;;;;9.60;8.70;;;;;;;10.69;100.00;97850.41;106836;1275;22655;-76
2023/07/23 03:03:13;;;;;;;9.40;8.50;;;;;;;10.70;100.00;97851.63;106854;1275;22648;-76
2023/07/23 03:05:45;;;;;;;10.00;8.50;;;;;;;10.71;100.00;97847.36;106858;1275;22640;-76
2023/07/23 03:08:13;;;;;;;10.70;8.80;;;;;;;10.70;100.00;97851.37;106843;1275;22548;-76
2023/07/23 03:10:42;;;;;;;9.70;8.30;;;;;;;10.70;100.00;97847.05;106843;1275;25322;-76
2023/07/23 03:13:10;;;;;;;9.80;8.80;;;;;;;10.71;100.00;97841.75;106932;1275;22579;-76
2023/07/23 03:15:38;;;;;;;10.10;9.20;;;;;;;10.74;100.00;97844.98;106862;1275;22622;-76
2023/07/23 03:18:06;;;;;;;12.60;8.90;;;;;;;10.77;100.00;97846.16;106883;1275;25353;-76
2023/07/23 03:20:35;;;;;;;10.20;8.60;;;;;;;10.78;100.00;97842.27;106782;1275;22535;-76
2023/07/23 03:23:03;;;;;;;10.40;9.40;;;;;;;10.78;100.00;97844.42;106875;1275;24638;-76
2023/07/23 03:25:31;;;;;;;9.90;8.90;;;;;;;10.78;100.00;97841.83;106846;1275;22583;-76
2023/07/23 03:27:59;;;;;;;10.30;8.90;;;;;;;10.78;100.00;97840.20;106620;1275;22531;-76
2023/07/23 03:30:28;;;;;;;11.50;9.80;;;;;;;10.78;100.00;97841.19;106829;1275;24372;-77
2023/07/23 03:32:56;;;;;;;9.40;8.40;;;;;;;10.79;100.00;97840.89;106856;1275;24244;-79
2023/07/23 03:35:24;;;;;;;12.30;10.60;;;;;;;10.83;100.00;97839.73;107096;1275;22531;-78
2023/07/23 03:37:53;;;;;;;10.00;9.00;;;;;;;10.87;100.00;97841.43;106876;1275;22635;-76
2023/07/23 03:40:21;;;;;;;11.00;9.90;;;;;;;10.95;100.00;97838.41;106855;1275;22535;-77
2023/07/23 03:42:49;;;;;;;11.70;10.50;;;;;;;11.03;100.00;97836.40;106852;1275;24206;-76
2023/07/23 03:45:17;;;;;;;13.90;12.00;;;;;;;11.07;100.00;97836.24;106899;1275;25409;-76
2023/07/23 03:47:45;;;;;;;14.80;12.50;;;;;;;11.09;100.00;97839.73;106807;1275;22539;-76
2023/07/23 03:50:13;;;;;;;12.70;11.10;;;;;;;11.14;100.00;97837.13;106636;1275;24234;-75
2023/07/23 03:52:41;;;;;;;12.10;10.70;;;;;;;11.22;100.00;97836.30;106833;1275;22565;-76
2023/07/23 03:55:09;;;;;;;12.00;10.60;;;;;;;11.29;100.00;97840.08;106861;1275;24423;-76
2023/07/23 03:57:37;;;;;;;12.20;10.90;;;;;;;11.38;100.00;97840.58;106872;1275;22652;-76
2023/07/23 04:00:06;;;;;;;11.90;10.10;;;;;;;11.46;100.00;97841.23;106864;1275;25294;-78
2023/07/23 04:02:38;;;;;;;12.00;10.70;;;;;;;11.51;100.00;97841.80;106981;1271;22537;-80
2023/07/23 04:05:06;;;;;;;12.90;10.30;;;;;;;11.55;100.00;97842.61;106935;1275;23922;-79
2023/07/23 04:07:34;;;;;;;12.20;11.00;;;;;;;11.63;100.00;97837.25;106733;1275;23032;-77
2023/07/23 04:10:03;;;;;;;12.50;11.20;;;;;;;11.73;100.00;97838.14;106966;1275;24242;-77
2023/07/23 04:12:34;;;;;;;14.10;11.70;;;;;;;11.84;100.00;97836.59;106848;1275;25357;-77
2023/07/23 04:15:03;;;;;;;12.30;11.10;;;;;;;11.94;100.00;97842.02;106875;1275;22538;-77
2023/07/23 04:17:32;;;;;;;14.80;12.40;;;;;;;12.05;100.00;97840.33;106879;1275;24220;-76
2023/07/23 04:20:00;;;;;;;12.80;11.50;;;;;;;12.19;100.00;97837.45;106923;1275;22531;-76
2023/07/23 04:22:29;;;;;;;15.20;11.90;;;;;;;12.31;100.00;97835.98;106894;1275;22554;-76
2023/07/23 04:24:57;;;;;;;15.50;12.40;;;;;;;12.44;100.00;97834.67;106956;1275;22805;-76
2023/07/23 04:27:24;;;;;;;12.50;11.20;;;;;;;12.58;100.00;97836.80;106937;1275;22759;-77
2023/07/23 04:29:53;;;;;;;12.00;10.80;;;;;;;12.76;100.00;97835.33;106980;1262;22651;-77
2023/07/23 04:32:21;;;;;;;13.30;11.50;;;;;;;12.91;100.00;97832.20;107119;1275;25648;-77
2023/07/23 04:34:58;;;;;;;13.20;11.10;;;;;;;13.08;100.00;97833.42;106916;1275;22611;-78
2023/07/23 04:37:26;;;;;;;13.60;11.30;;;;;;;13.24;100.00;97836.33;106979;1275;24062;-76
2023/07/23 04:39:54;;;;;;;12.50;11.20;;;;;;;13.34;100.00;97835.58;106883;1275;25405;-77
2023/07/23 04:42:22;;;;;;;13.00;10.90;;;;;;;13.45;100.00;97834.77;106910;1275;22534;-78
2023/07/23 04:44:50;;;;;;;12.80;10.90;;;;;;;13.58;100.00;97831.32;106679;1275;22812;-78
2023/07/23 04:47:18;;;;;;;12.50;10.80;;;;;;;13.74;100.00;97831.08;106874;1275;24442;-78
2023/07/23 04:49:46;;;;;;;11.50;10.40;;;;;;;13.92;100.00;97831.53;106892;1275;22719;-79
2023/07/23 04:52:14;;;;;;;12.10;10.90;;;;;;;14.10;100.00;97833.75;107087;1275;22542;-79
2023/07/23 04:54:42;;;;;;;12.80;11.00;;;;;;;14.25;100.00;97833.90;106880;1275;25453;-79
2023/07/23 04:57:10;;;;;;;12.70;11.40;;;;;;;14.41;100.00;97826.96;106853;1268;22534;-78
2023/07/23 04:59:38;;;;;;;12.80;10.60;;;;;;;14.56;100.00;97825.98;106977;1275;25424;-78
2023/07/23 05:02:06;;;;;;;12.80;11.10;;;;;;;14.71;100.00;97830.47;106843;1275;25384;-78
2023/07/23 05:04:34;;;;;;;11.00;9.70;;;;;;;14.93;100.00;97833.31;106819;1275;22521;-78
2023/07/23 05:07:03;;;;;;;11.50;10.00;;;;;;;15.13;100.00;97836.02;106861;1264;22569;-78
2023/07/23 05:09:30;;;;;;;11.20;10.10;;;;;;;15.29;100.00;97839.73;106858;1275;22759;-78
2023/07/23 05:11:58;;;;;;;11.10;10.00;;;;;;;15.44;100.00;97837.42;106884;1275;22629;-78
2023/07/23 05:14:26;;;;;;;13.10;10.60;;;;;;;15.55;100.00;97832.70;106745;1275;22668;-78
2023/07/23 05:16:55;;;;;;;12.40;11.20;;;;;;;15.69;100.00;97832.21;106893;1275;22754;-78
2023/07/23 05:19:23;;;;;;;11.20;9.60;;;;;;;15.82;100.00;97834.70;106852;1275;23364;-76
2023/07/23 05:21:51;;;;;;;10.60;9.30;;;;;;;15.96;100.00;97831.91;106872;1275;22644;-76
2023/07/23 05:24:19;;;;;;;13.60;9.90;;;;;;;16.11;100.00;97831.20;106856;1275;22626;-76
2023/07/23 05:26:47;;;;;;;9.60;8.60;;;;;;;16.25;100.00;97831.52;106822;1275;22633;-76
2023/07/23 05:29:15;;;;;;;10.20;9.10;;;;;;;16.40;100.00;97837.52;106884;1275;23155;-76
2023/07/23 05:31:43;;;;;;;13.00;8.60;;;;;;;16.52;100.00;97834.73;106850;1275;22642;-76
2023/07/23 05:34:10;;;;;;;10.70;9.60;;;;;;;16.62;100.00;97834.81;106878;1275;25310;-77
2023/07/23 05:36:38;;;;;;;12.00;8.80;;;;;;;16.73;99.54;97831.14;106811;1275;24200;-77
2023/07/23 05:39:07;;;;;;;12.60;9.00;;;;;;;16.86;99.26;97828.20;106680;1275;24354;-77
2023/07/23 05:41:35;;;;;;;9.90;8.70;;;;;;;17.00;99.02;97829.58;106883;1275;24249;-77
2023/07/23 05:44:03;;;;;;;9.80;8.90;;;;;;;17.15;98.81;97829.41;106899;1275;24295;-78
2023/07/23 05:46:31;;;;;;;9.90;8.90;;;;;;;17.28;98.37;97827.31;107204;1275;22659;-76
2023/07/23 05:48:59;;;;;;;11.00;8.50;;;;;;;17.39;97.86;97831.13;106877;1275;22761;-76
2023/07/23 05:51:27;;;;;;;10.80;8.50;;;;;;;17.46;97.48;97830.31;106856;1275;25393;-76
2023/07/23 05:53:56;;;;;;;9.50;8.40;;;;;;;17.52;97.06;97831.02;106853;1253;22617;-76
2023/07/23 05:56:23;;;;;;;10.60;8.40;;;;;;;17.58;96.57;97832.59;106859;1275;24209;-76
2023/07/23 05:58:51;;;;;;;8.90;7.70;;;;;;;17.64;96.11;97832.69;106857;1275;22989;-76
2023/07/23 06:01:19;;;;;;;9.90;7.90;;;;;;;17.72;95.83;97831.20;106828;1253;22529;-77
2023/07/23 06:03:47;;;;;;;10.60;8.30;;;;;;;17.84;95.60;97834.97;106862;1275;25402;-77
2023/07/23 06:06:23;;;;;;;9.90;8.30;;;;;;;17.97;95.03;97834.34;106890;1275;24286;-77
2023/07/23 06:08:51;;;;;;;9.60;8.20;;;;;;;18.11;94.35;97834.61;106867;1275;22525;-77
2023/07/23 06:11:19;;;;;;;8.80;7.90;;;;;;;18.20;94.04;97834.92;106838;1275;22762;-77
2023/07/23 06:13:48;;;;;;;9.30;8.20;;;;;;;18.30;93.78;97832.98;106908;1275;25417;-77
2023/07/23 06:16:16;;;;;;;8.80;7.80;;;;;;;18.37;93.15;97832.16;106827;1275;22536;-77
2023/07/23 06:18:44;;;;;;;9.60;7.60;;;;;;;18.42;92.54;97831.96;106863;1275;25351;-76
2023/07/23 06:21:12;;;;;;;9.90;7.20;;;;;;;18.47;91.83;97828.75;106933;1275;24246;-77
2023/07/23 06:23:40;;;;;;;8.80;7.50;;;;;;;18.58;91.06;97828.07;106818;1275;24075;-76
2023/07/23 06:26:08;;;;;;;8.00;6.60;;;;;;;18.76;91.24;97826.73;106854;1275;22550;-77
2023/07/23 06:28:38;;;;;;;9.40;6.80;;;;;;;18.86;90.87;97828.70;106912;1275;22738;-77
2023/07/23 06:31:07;;;;;;;7.30;6.20;;;;;;;18.90;89.56;97829.55;106843;1275;24269;-76
2023/07/23 06:33:35;;;;;;;7.80;6.10;;;;;;;18.89;88.47;97831.02;106855;1275;25300;-77
2023/07/23 06:36:03;;;;;;;7.30;6.40;;;;;;;18.88;88.61;97830.98;106856;1275;25568;-77
2023/07/23 06:38:31;;;;;;;10.30;6.40;;;;;;;18.84;87.88;97832.31;106833;1264;23760;-78
2023/07/23 06:40:59;;;;;;;8.80;6.60;;;;;;;18.79;87.21;97826.41;106835;1275;22730;-77
2023/07/23 06:43:27;;;;;;;6.90;6.00;;;;;;;18.79;87.31;97826.02;106882;1275;22584;-76
2023/07/23 06:45:55;;;;;;;7.40;6.70;;;;;;;18.83;87.42;97823.08;106865;1275;23279;-76
2023/07/23 06:48:27;;;;;;;8.20;6.40;;;;;;;18.88;86.96;97819.14;106861;1275;22634;-76
2023/07/23 06:50:57;;;;;;;8.90;6.90;;;;;;;18.98;86.65;97820.30;106939;1275;24917;-76
2023/07/23 06:53:25;;;;;;;7.50;6.10;;;;;;;19.05;86.18;97822.25;106893;1275;22626;-76
2023/07/23 06:55:58;;;;;;;10.80;6.40;;;;;;;19.13;85.70;97822.34;106859;1275;25291;-78
2023/07/23 06:58:29;;;;;;;8.40;6.60;;;;;;;19.22;84.79;97825.04;107006;1275;22864;-76
2023/07/23 07:00:57;;;;;;;8.10;6.60;;;;;;;19.32;84.86;97826.42;106863;1275;24396;-78
2023/07/23 07:03:26;;;;;;;7.40;6.40;;;;;;;19.44;84.60;97820.52;106768;1275;24246;-77
2023/07/23 07:05:54;;;;;;;6.80;6.10;;;;;;;19.57;83.45;97820.23;106851;1275;22580;-77
2023/07/23 07:08:22;;;;;;;11.60;6.70;;;;;;;19.65;82.71;97819.14;106858;1275;25488;-77
2023/07/23 07:11:03;;;;;;;9.40;7.00;;;;;;;19.84;82.81;97821.56;106840;1275;22579;-78
2023/07/23 07:13:32;;;;;;;8.00;6.70;;;;;;;20.01;82.75;97820.86;106975;1275;22524;-80
2023/07/23 07:16:00;;;;;;;7.50;6.20;;;;;;;20.13;81.92;97816.64;107165;1275;22940;-76
2023/07/23 07:18:28;;;;;;;8.90;6.40;;;;;;;20.21;81.15;97818.95;106847;1275;22597;-76
2023/07/23 07:20:58;;;;;;;9.70;6.20;;;;;;;20.26;80.54;97815.77;106816;1275;25431;-77
2023/07/23 07:23:28;;;;;;;7.10;5.70;;;;;;;20.28;79.27;97818.08;106953;1275;25348;-76
2023/07/23 07:25:58;;;;;;;6.50;5.70;;;;;;;20.34;79.87;97815.44;106920;1275;24062;-76
2023/07/23 07:28:27;;;;;;;9.50;6.50;;;;;;;20.41;79.12;97811.88;106900;1275;22571;-76
2023/07/23 07:30:58;;;;;;;9.90;6.60;;;;;;;20.52;78.75;97806.90;106859;1275;22529;-76
2023/07/23 07:33:28;;;;;;;7.50;6.60;;;;;;;20.61;79.01;97809.96;106899;1275;25473;-77
2023/07/23 07:35:57;;;;;;;9.40;6.70;;;;;;;20.79;78.87;97804.05;106891;1275;24419;-76
2023/07/23 07:38:27;;;;;;;7.40;6.60;;;;;;;20.94;77.71;97800.45;106917;1275;24468;-77
2023/07/23 07:40:57;;;;;;;8.50;6.70;;;;;;;21.02;77.53;97806.66;106852;1275;22644;-77
2023/07/23 07:43:26;;;;;;;7.50;6.50;;;;;;;21.11;78.20;97801.39;106813;1275;22548;-77
2023/07/23 07:45:59;;;;;;;8.00;6.00;;;;;;;21.22;77.90;97797.70;106836;1275;22513;-77
2023/07/23 07:48:30;;;;;;;8.90;6.80;;;;;;;21.31;77.54;97797.42;106893;1275;23922;-77
2023/07/23 07:51:07;;;;;;;10.00;7.10;;;;;;;21.42;76.65;97796.41;106839;1275;22793;-77
2023/07/23 07:53:36;;;;;;;7.00;6.20;;;;;;;21.50;76.91;97792.42;106844;1275;22539;-77
2023/07/23 07:56:05;;;;;;;8.40;6.30;;;;;;;21.58;77.09;97793.09;106845;1275;22540;-77
2023/07/23 07:58:33;;;;;;;7.40;6.10;;;;;;;21.65;76.62;97796.06;106900;1275;22685;-77
2023/07/23 08:01:04;;;;;;;8.10;6.00;;;;;;;21.71;76.69;97788.07;106846;1275;25240;-77
2023/07/23 08:03:33;;;;;;;7.50;5.80;;;;;;;21.74;76.42;97794.67;106832;1275;22513;-77
2023/07/23 08:06:01;;;;;;;8.10;6.30;;;;;;;21.73;76.30;97791.14;106912;1275;24207;-77
2023/07/23 08:08:32;;;;;;;8.90;6.30;;;;;;;21.73;76.31;97785.89;106806;1275;22670;-78
2023/07/23 08:11:02;;;;;;;7.50;6.00;;;;;;;21.74;75.92;97785.12;106862;1275;25472;-77
2023/07/23 08:13:31;;;;;;;7.40;5.80;;;;;;;21.77;75.66;97787.73;106999;1272;22528;-77
2023/07/23 08:15:59;;;;;;;10.40;6.70;;;;;;;21.84;75.27;97786.55;106855;1275;22543;-76
2023/07/23 08:18:27;;;;;;;9.00;6.50;;;;;;;21.99;75.28;97784.98;106837;1275;24338;-77
2023/07/23 08:20:57;;;;;;;7.70;6.10;;;;;;;22.18;74.44;97781.79;106871;1275;26614;-78
2023/07/23 08:23:25;;;;;;;8.00;5.80;;;;;;;22.40;75.15;97779.81;106859;1275;26510;-76
2023/07/23 08:25:57;;;;;;;7.40;5.90;;;;;;;22.62;73.66;97780.53;106837;1275;22527;-76
2023/07/23 08:28:29;;;;;;;6.60;5.40;;;;;;;22.79;72.93;97780.35;106914;1275;25281;-76
2023/07/23 08:31:00;;;;;;;7.60;5.10;;;;;;;22.97;72.67;97778.11;106989;1275;24474;-78
2023/07/23 08:33:30;;;;;;;6.80;5.00;;;;;;;23.14;71.84;97774.52;107198;1267;22527;-77
2023/07/23 08:36:00;;;;;;;7.40;5.20;;;;;;;23.34;71.18;97772.41;107187;1275;25285;-76
2023/07/23 08:38:29;;;;;;;7.70;5.60;;;;;;;23.47;70.15;97776.02;106907;1275;25425;-77
2023/07/23 08:41:01;;;;;;;7.20;4.90;;;;;;;23.59;68.94;97778.48;106824;1275;22520;-78
2023/07/23 08:43:47;;;;;;;8.90;4.80;;;;;;;23.57;66.68;97779.11;106837;1270;22578;-76
2023/07/23 08:46:24;;;;;;;8.40;5.10;;;;;;;23.61;68.22;97777.01;106762;1275;24254;-76
2023/07/23 08:48:54;;;;;;;7.60;5.20;;;;;;;23.74;68.68;97785.55;106808;1275;25401;-76
2023/07/23 08:51:25;;;;;;;6.20;5.00;;;;;;;23.92;69.02;97774.91;106839;1269;24347;-76
2023/07/23 08:53:56;;;;;;;7.50;5.70;;;;;;;24.17;68.57;97774.80;106863;1274;22521;-77
2023/07/23 08:56:24;;;;;;;5.80;4.80;;;;;;;24.27;63.08;97783.85;106798;1275;25569;-77
2023/07/23 08:58:52;;;;;;;6.70;4.50;;;;;;;24.30;61.88;97770.09;106857;1275;22532;-78
2023/07/23 09:01:23;;;;;;;5.90;4.10;;;;;;;24.34;62.25;97766.31;106800;1275;24967;-76
2023/07/23 09:03:51;;;;;;;7.60;4.50;;;;;;;24.44;60.98;97763.66;106981;1275;22630;-77
2023/07/23 09:06:19;;;;;;;9.50;4.30;;;;;;;24.56;60.75;97767.66;106876;1275;22526;-77
2023/07/23 09:08:51;;;;;;;6.00;3.80;;;;;;;24.61;58.67;97765.46;107156;1264;24241;-77
2023/07/23 09:11:19;;;;;;;7.60;4.20;;;;;;;24.61;58.56;97758.21;106913;1275;26179;-77
2023/07/23 09:13:47;;;;;;;5.50;4.10;;;;;;;24.70;58.43;97753.33;106805;1275;22644;-77
2023/07/23 09:16:23;;;;;;;8.60;4.10;;;;;;;24.83;58.16;97755.11;106826;1275;25252;-77
2023/07/23 09:18:51;;;;;;;6.70;4.20;;;;;;;24.91;56.17;97754.48;106870;1275;22541;-77
2023/07/23 09:21:26;;;;;;;7.50;3.80;;;;;;;24.98;55.89;97755.48;106888;1275;22522;-77
2023/07/23 09:23:57;;;;;;;7.20;3.70;;;;;;;25.10;54.92;97750.31;106865;1275;22633;-77
2023/07/23 09:26:27;;;;;;;4.90;3.50;;;;;;;25.19;53.54;97753.63;106916;1275;24252;-76
2023/07/23 09:28:59;;;;;;;8.00;3.50;;;;;;;25.27;53.64;97749.35;106865;1275;22612;-78
2023/07/23 09:31:31;;;;;;;9.10;3.90;;;;;;;25.35;52.65;97746.33;107023;1275;22668;-78
2023/07/23 09:34:01;;;;;;;6.50;4.20;;;;;;;25.44;52.41;97750.47;106939;1275;22538;-77
2023/07/23 09:36:30;;;;;;;5.00;3.40;;;;;;;25.47;50.56;97750.36;106867;1275;22541;-77
2023/07/23 09:38:58;;;;;;;4.20;3.30;;;;;;;25.49;48.82;97751.85;106890;1275;22543;-77
2023/07/23 09:41:29;;;;;;;4.10;3.40;;;;;;;25.52;47.29;97740.80;106847;1275;23029;-77
2023/07/23 09:44:05;;;;;;;5.70;3.20;;;;;;;25.63;47.70;97750.84;106954;1275;25275;-78
2023/07/23 09:46:34;;;;;;;4.60;3.00;;;;;;;25.74;48.83;97744.48;106904;1275;22521;-78
2023/07/23 09:49:02;;;;;;;8.10;3.10;;;;;;;25.95;48.94;97743.27;106941;1275;25317;-77
2023/07/23 09:51:34;;;;;;;4.60;3.00;;;;;;;26.02;45.17;97740.30;106884;1275;25770;-77
2023/07/23 09:54:04;;;;;;;5.20;3.60;;;;;;;26.07;44.61;97746.65;106844;1275;24348;-77
2023/07/23 09:56:36;;;;;;;4.50;3.00;;;;;;;26.01;44.26;97743.30;106771;1275;22615;-77
2023/07/23 09:59:05;;;;;;;4.60;2.80;;;;;;;26.01;44.58;97737.14;106824;1275;24190;-77
2023/07/23 10:01:33;;;;;;;5.00;3.20;;;;;;;26.15;43.10;97733.89;106811;1275;22606;-77
2023/07/23 10:04:02;;;;;;;7.80;3.40;;;;;;;26.26;42.16;97733.57;106921;1275;25314;-77
2023/07/23 10:06:31;;;;;;;8.30;4.00;;;;;;;26.13;41.90;97731.54;106811;1275;22744;-77
2023/07/23 10:09:02;;;;;;;4.50;3.00;;;;;;;25.95;42.49;97734.12;106838;1275;25386;-77
2023/07/23 10:11:33;;;;;;;7.30;3.30;;;;;;;25.80;42.46;97736.41;106845;1275;22528;-76
2023/07/23 10:14:02;;;;;;;4.30;3.30;;;;;;;25.65;41.77;97749.33;106866;1275;22659;-77
2023/07/23 10:16:37;;;;;;;3.90;3.10;;;;;;;25.46;42.53;97732.48;106820;1275;22541;-77
2023/07/23 10:19:07;;;;;;;6.20;4.00;;;;;;;25.49;42.85;97736.64;106792;1275;22637;-77
2023/07/23 10:21:36;;;;;;;6.30;3.40;;;;;;;25.70;42.94;97733.22;106822;1275;24218;-76
2023/07/23 10:24:05;;;;;;;6.00;3.40;;;;;;;25.90;42.48;97727.61;106869;1275;24365;-77
2023/07/23 10:26:42;;;;;;;5.00;3.40;;;;;;;26.06;42.36;97736.48;106809;1275;22631;-77
2023/07/23 10:29:13;;;;;;;4.50;3.00;;;;;;;26.17;41.26;97740.90;106876;1275;25397;-77
2023/07/23 10:31:45;;;;;;;6.90;3.20;;;;;;;26.15;41.45;97736.89;106855;1275;25604;-77
2023/07/23 10:34:22;;;;;;;5.20;3.00;;;;;;;26.08;42.51;97731.41;106844;1275;25378;-78
2023/07/23 10:37:26;;;;;;;6.30;3.20;;;;;;;26.16;41.80;97730.49;106810;1275;22640;-76
2023/07/23 10:39:59;;;;;;;5.30;3.00;;;;;;;26.40;41.62;97717.36;106602;1279;22542;-79
2023/07/23 10:42:41;;;;;;;6.40;3.10;;;;;;;26.45;41.40;97713.05;106458;1279;22983;-78
2023/07/23 10:45:14;;;;;;;5.20;3.20;;;;;;;26.28;41.02;97712.24;106462;1269;22534;-76
2023/07/23 10:47:53;;;;;;;5.10;3.40;;;;;;;26.21;41.68;97713.86;106341;1280;25538;-77
2023/07/23 10:50:22;;;;;;;5.10;3.40;;;;;;;26.42;41.22;97712.20;106424;1280;25261;-77
2023/07/23 10:52:51;;;;;;;5.50;3.60;;;;;;;26.58;40.58;97714.20;106432;1276;24206;-77
2023/07/23 10:55:47;;;;;;;5.20;3.10;;;;;;;26.74;39.80;97713.41;106503;1279;22543;-77
2023/07/23 10:58:20;;;;;;;5.80;3.70;;;;;;;26.95;39.10;97705.13;106553;1279;22523;-77
2023/07/23 11:00:58;;;;;;;3.90;3.30;;;;;;;26.92;37.66;97699.33;106551;1279;24109;-77
2023/07/23 11:03:26;;;;;;;5.60;3.20;;;;;;;26.90;36.79;97701.08;106453;1279;22523;-77
2023/07/23 11:05:56;;;;;;;8.90;3.30;;;;;;;26.88;35.97;97700.55;106448;1279;24384;-77
2023/07/23 11:08:26;;;;;;;5.10;3.30;;;;;;;26.93;36.29;97697.40;106694;1279;25205;-77
2023/07/23 11:10:59;;;;;;;5.70;3.50;;;;;;;27.03;36.44;97692.40;106678;1279;23387;-78
2023/07/23 11:13:34;;;;;;;5.00;3.80;;;;;;;27.10;36.53;97690.65;106748;1275;22518;-77
2023/07/23 11:16:03;;;;;;;6.70;3.50;;;;;;;27.01;36.05;97692.52;107032;1275;25369;-77
2023/07/23 11:18:32;;;;;;;7.50;3.80;;;;;;;27.06;36.33;97686.60;107020;1275;22632;-75
2023/07/23 11:21:04;;;;;;;7.50;3.50;;;;;;;27.23;35.71;97689.17;106896;1275;22660;-77
2023/07/23 11:23:33;;;;;;;4.60;3.10;;;;;;;27.35;36.38;97680.33;106831;1275;22637;-77
2023/07/23 11:26:01;;;;;;;4.30;3.50;;;;;;;27.64;35.78;97686.65;106808;1275;22537;-77
2023/07/23 11:28:32;;;;;;;8.60;3.30;;;;;;;27.79;35.56;97684.53;106792;1275;22544;-77